createdAt,value
2019-05-01T00:00:15.260Z,1019.00
2019-05-01T00:00:33.613Z,1018.95
2019-05-01T00:01:03.555Z,1018.98
2019-05-01T00:01:33.614Z,1018.98
2019-05-01T00:02:03.553Z,1018.99
2019-05-01T00:02:33.612Z,1018.97
2019-05-01T00:03:03.553Z,1018.94
2019-05-01T00:03:33.619Z,1018.94
2019-05-01T00:04:33.607Z,1018.95
2019-05-01T00:05:03.548Z,1018.93
2019-05-01T00:06:06.564Z,1018.95
2019-05-01T00:06:38.987Z,1018.94
2019-05-01T00:07:03.554Z,1018.96
2019-05-01T00:07:33.617Z,1018.94
2019-05-01T00:08:08.299Z,1018.94
2019-05-01T00:08:33.610Z,1018.99
2019-05-01T00:09:03.555Z,1018.98
2019-05-01T00:09:33.626Z,1018.97
2019-05-01T00:10:03.550Z,1018.96
2019-05-01T00:10:33.684Z,1018.96
2019-05-01T00:11:03.559Z,1018.96
2019-05-01T00:11:33.616Z,1018.97
2019-05-01T00:12:03.548Z,1018.97
2019-05-01T00:12:33.648Z,1018.98
2019-05-01T00:13:03.551Z,1018.98
2019-05-01T00:13:33.609Z,1018.98
2019-05-01T00:14:03.551Z,1018.98
2019-05-01T00:14:33.610Z,1018.97
2019-05-01T00:15:03.559Z,1018.96
2019-05-01T00:15:33.613Z,1018.96
2019-05-01T00:16:03.551Z,1018.96
2019-05-01T00:16:33.616Z,1018.96
2019-05-01T00:17:03.556Z,1018.94
2019-05-01T00:17:33.613Z,1018.97
2019-05-01T00:18:03.556Z,1018.95
2019-05-01T00:18:37.214Z,1018.95
2019-05-01T00:19:03.556Z,1018.96
2019-05-01T00:19:33.608Z,1018.93
2019-05-01T00:20:03.551Z,1018.97
2019-05-01T00:20:33.612Z,1018.95
2019-05-01T00:21:03.549Z,1018.94
2019-05-01T00:21:33.674Z,1018.94
2019-05-01T00:22:03.552Z,1018.95
2019-05-01T00:22:33.749Z,1018.93
2019-05-01T00:23:03.563Z,1018.90
2019-05-01T00:23:33.609Z,1018.91
2019-05-01T00:24:03.559Z,1018.90
2019-05-01T00:24:33.613Z,1018.88
2019-05-01T00:25:03.573Z,1018.89
2019-05-01T00:25:33.610Z,1018.87
2019-05-01T00:26:03.560Z,1018.84
2019-05-01T00:26:33.665Z,1018.85
2019-05-01T00:27:03.597Z,1018.86
2019-05-01T00:27:33.613Z,1018.87
2019-05-01T00:28:03.584Z,1018.85
2019-05-01T00:28:33.635Z,1018.82
2019-05-01T00:29:07.144Z,1018.81
2019-05-01T00:29:33.617Z,1018.80
2019-05-01T00:30:03.560Z,1018.80
2019-05-01T00:30:33.624Z,1018.79
2019-05-01T00:31:03.594Z,1018.77
2019-05-01T00:31:33.649Z,1018.80
2019-05-01T00:32:03.554Z,1018.76
2019-05-01T00:32:33.621Z,1018.76
2019-05-01T00:33:03.572Z,1018.77
2019-05-01T00:33:33.625Z,1018.79
2019-05-01T00:34:03.559Z,1018.76
2019-05-01T00:34:33.612Z,1018.75
2019-05-01T00:35:03.552Z,1018.78
2019-05-01T00:35:33.688Z,1018.74
2019-05-01T00:36:03.555Z,1018.75
2019-05-01T00:36:33.618Z,1018.72
2019-05-01T00:37:03.552Z,1018.75
2019-05-01T00:37:33.691Z,1018.75
2019-05-01T00:38:03.594Z,1018.74
2019-05-01T00:38:33.623Z,1018.75
2019-05-01T00:39:03.558Z,1018.72
2019-05-01T00:40:03.556Z,1018.73
2019-05-01T00:40:33.620Z,1018.73
2019-05-01T00:41:03.554Z,1018.74
2019-05-01T00:41:33.644Z,1018.73
2019-05-01T00:42:33.615Z,1018.72
2019-05-01T00:43:03.711Z,1018.72
2019-05-01T00:43:34.657Z,1018.74
2019-05-01T00:44:03.559Z,1018.71
2019-05-01T00:45:03.560Z,1018.73
2019-05-01T00:45:33.619Z,1018.69
2019-05-01T00:46:03.563Z,1018.72
2019-05-01T00:46:33.626Z,1018.69
2019-05-01T00:47:33.618Z,1018.67
2019-05-01T00:48:03.567Z,1018.67
2019-05-01T00:48:33.623Z,1018.69
2019-05-01T00:49:03.554Z,1018.68
2019-05-01T00:50:07.245Z,1018.66
2019-05-01T00:50:33.616Z,1018.65
2019-05-01T00:51:03.558Z,1018.66
2019-05-01T00:51:33.643Z,1018.66
2019-05-01T00:52:33.658Z,1018.64
2019-05-01T00:53:03.563Z,1018.65
2019-05-01T00:53:33.621Z,1018.64
2019-05-01T00:54:03.597Z,1018.63
2019-05-01T00:55:03.557Z,1018.65
2019-05-01T00:55:33.622Z,1018.63
2019-05-01T00:56:03.643Z,1018.67
2019-05-01T00:56:33.613Z,1018.65
2019-05-01T00:57:33.620Z,1018.62
2019-05-01T00:58:03.601Z,1018.64
2019-05-01T00:58:33.623Z,1018.64
2019-05-01T00:59:03.571Z,1018.62
2019-05-01T01:00:03.570Z,1018.60
2019-05-01T01:00:43.529Z,1018.61
2019-05-01T01:01:03.572Z,1018.61
2019-05-01T01:01:33.634Z,1018.60
2019-05-01T01:02:33.714Z,1018.57
2019-05-01T01:03:03.560Z,1018.57
2019-05-01T01:03:33.625Z,1018.55
2019-05-01T01:04:03.733Z,1018.56
2019-05-01T01:05:03.570Z,1018.57
2019-05-01T01:05:33.613Z,1018.58
2019-05-01T01:06:03.557Z,1018.53
2019-05-01T01:06:33.656Z,1018.54
2019-05-01T01:07:33.623Z,1018.56
2019-05-01T01:08:03.561Z,1018.55
2019-05-01T01:08:33.666Z,1018.55
2019-05-01T01:09:03.580Z,1018.53
2019-05-01T01:10:03.566Z,1018.51
2019-05-01T01:10:33.627Z,1018.53
2019-05-01T01:11:07.230Z,1018.52
2019-05-01T01:11:33.622Z,1018.53
2019-05-01T01:12:33.630Z,1018.52
2019-05-01T01:13:03.566Z,1018.53
2019-05-01T01:13:33.617Z,1018.52
2019-05-01T01:14:03.571Z,1018.51
2019-05-01T01:15:03.575Z,1018.53
2019-05-01T01:15:33.619Z,1018.55
2019-05-01T01:16:03.566Z,1018.54
2019-05-01T01:16:33.628Z,1018.55
2019-05-01T01:17:33.620Z,1018.55
2019-05-01T01:18:03.563Z,1018.53
2019-05-01T01:18:33.627Z,1018.54
2019-05-01T01:19:03.623Z,1018.52
2019-05-01T01:20:03.562Z,1018.51
2019-05-01T01:20:33.622Z,1018.50
2019-05-01T01:21:03.577Z,1018.51
2019-05-01T01:21:37.218Z,1018.52
2019-05-01T01:22:33.632Z,1018.51
2019-05-01T01:23:03.612Z,1018.51
2019-05-01T01:23:33.631Z,1018.51
2019-05-01T01:24:03.564Z,1018.49
2019-05-01T01:25:03.697Z,1018.51
2019-05-01T01:25:33.632Z,1018.48
2019-05-01T01:26:03.568Z,1018.49
2019-05-01T01:26:33.629Z,1018.48
2019-05-01T01:27:33.627Z,1018.50
2019-05-01T01:28:03.569Z,1018.49
2019-05-01T01:28:33.628Z,1018.49
2019-05-01T01:29:33.781Z,1018.47
2019-05-01T01:29:36.765Z,1018.51
2019-05-01T01:30:06.918Z,1018.48
2019-05-01T01:30:33.631Z,1018.48
2019-05-01T01:32:03.645Z,1018.46
2019-05-01T01:32:39.445Z,1018.48
2019-05-01T01:33:03.567Z,1018.45
2019-05-01T01:34:39.006Z,1018.46
2019-05-01T01:35:09.044Z,1018.47
2019-05-01T01:36:26.062Z,1018.44
2019-05-01T01:36:33.632Z,1018.45
2019-05-01T01:37:03.595Z,1018.44
2019-05-01T01:37:33.634Z,1018.45
2019-05-01T01:38:03.564Z,1018.43
2019-05-01T01:38:33.633Z,1018.42
2019-05-01T01:39:03.578Z,1018.42
2019-05-01T01:39:33.629Z,1018.41
2019-05-01T01:40:03.568Z,1018.42
2019-05-01T01:40:33.631Z,1018.40
2019-05-01T01:41:03.566Z,1018.38
2019-05-01T01:41:33.629Z,1018.39
2019-05-01T01:42:03.581Z,1018.40
2019-05-01T01:43:06.399Z,1018.39
2019-05-01T01:43:33.635Z,1018.37
2019-05-01T01:44:03.578Z,1018.36
2019-05-01T01:44:33.635Z,1018.37
2019-05-01T01:45:33.627Z,1018.36
2019-05-01T01:46:03.583Z,1018.36
2019-05-01T01:46:33.634Z,1018.34
2019-05-01T01:47:03.709Z,1018.30
2019-05-01T01:48:03.613Z,1018.32
2019-05-01T01:48:33.633Z,1018.31
2019-05-01T01:49:03.579Z,1018.30
2019-05-01T01:49:33.631Z,1018.29
2019-05-01T01:50:33.627Z,1018.29
2019-05-01T01:51:03.573Z,1018.29
2019-05-01T01:51:33.638Z,1018.27
2019-05-01T01:52:03.580Z,1018.28
2019-05-01T01:53:03.572Z,1018.27
2019-05-01T01:53:36.117Z,1018.26
2019-05-01T01:54:03.578Z,1018.24
2019-05-01T01:54:33.640Z,1018.24
2019-05-01T01:55:33.655Z,1018.23
2019-05-01T01:56:03.597Z,1018.23
2019-05-01T01:56:33.665Z,1018.18
2019-05-01T01:57:03.572Z,1018.20
2019-05-01T01:58:03.576Z,1018.19
2019-05-01T01:58:33.635Z,1018.16
2019-05-01T01:59:03.579Z,1018.16
2019-05-01T01:59:33.640Z,1018.13
2019-05-01T02:00:33.647Z,1018.13
2019-05-01T02:01:09.766Z,1018.14
2019-05-01T02:01:33.639Z,1018.13
2019-05-01T02:02:03.573Z,1018.10
2019-05-01T02:02:33.631Z,1018.11
2019-05-01T02:03:03.575Z,1018.13
2019-05-01T02:03:33.631Z,1018.14
2019-05-01T02:04:06.453Z,1018.13
2019-05-01T02:04:33.631Z,1018.13
2019-05-01T02:05:03.577Z,1018.11
2019-05-01T02:06:03.578Z,1018.12
2019-05-01T02:06:33.635Z,1018.13
2019-05-01T02:07:03.591Z,1018.09
2019-05-01T02:07:33.628Z,1018.07
2019-05-01T02:08:33.646Z,1018.07
2019-05-01T02:09:03.572Z,1018.05
2019-05-01T02:09:33.801Z,1018.08
2019-05-01T02:10:03.601Z,1018.07
2019-05-01T02:10:42.735Z,1018.05
2019-05-01T02:11:33.651Z,1018.06
2019-05-01T02:12:03.594Z,1018.06
2019-05-01T02:12:33.636Z,1018.06
2019-05-01T02:13:33.636Z,1018.05
2019-05-01T02:14:03.583Z,1018.03
2019-05-01T02:14:36.120Z,1018.06
2019-05-01T02:15:03.700Z,1018.07
2019-05-01T02:16:03.580Z,1018.09
2019-05-01T02:16:33.642Z,1018.04
2019-05-01T02:17:03.607Z,1018.08
2019-05-01T02:17:33.638Z,1018.10
2019-05-01T02:18:33.692Z,1018.07
2019-05-01T02:19:03.577Z,1018.08
2019-05-01T02:19:33.706Z,1018.04
2019-05-01T02:20:03.581Z,1018.07
2019-05-01T02:21:03.576Z,1018.03
2019-05-01T02:21:33.657Z,1018.02
2019-05-01T02:22:03.582Z,1018.04
2019-05-01T02:22:33.639Z,1018.05
2019-05-01T02:23:33.980Z,1018.03
2019-05-01T02:24:03.573Z,1018.03
2019-05-01T02:24:33.640Z,1018.02
2019-05-01T02:25:06.166Z,1018.02
2019-05-01T02:26:03.583Z,1018.03
2019-05-01T02:26:33.640Z,1018.01
2019-05-01T02:27:03.578Z,1018.00
2019-05-01T02:27:33.650Z,1018.00
2019-05-01T02:28:33.676Z,1017.99
2019-05-01T02:29:03.581Z,1018.00
2019-05-01T02:29:33.676Z,1018.02
2019-05-01T02:30:03.592Z,1018.03
2019-05-01T02:31:03.935Z,1018.02
2019-05-01T02:31:33.651Z,1018.02
2019-05-01T02:32:03.587Z,1018.01
2019-05-01T02:32:33.644Z,1018.03
2019-05-01T02:33:33.640Z,1018.02
2019-05-01T02:34:03.694Z,1018.03
2019-05-01T02:34:33.635Z,1018.02
2019-05-01T02:35:03.573Z,1018.03
2019-05-01T02:35:36.133Z,1018.01
2019-05-01T02:36:33.650Z,1018.00
2019-05-01T02:37:03.585Z,1017.98
2019-05-01T02:37:33.660Z,1018.01
2019-05-01T02:38:33.647Z,1017.99
2019-05-01T02:39:03.625Z,1018.00
2019-05-01T02:39:33.635Z,1018.00
2019-05-01T02:40:03.574Z,1017.98
2019-05-01T02:40:33.646Z,1017.99
2019-05-01T02:41:33.644Z,1017.97
2019-05-01T02:42:03.586Z,1017.98
2019-05-01T02:42:33.720Z,1017.95
2019-05-01T02:43:03.587Z,1017.95
2019-05-01T02:44:03.584Z,1017.95
2019-05-01T02:44:33.643Z,1017.93
2019-05-01T02:45:03.587Z,1017.96
2019-05-01T02:45:33.651Z,1017.93
2019-05-01T02:46:06.189Z,1017.92
2019-05-01T02:47:03.588Z,1017.93
2019-05-01T02:47:33.648Z,1017.92
2019-05-01T02:48:03.583Z,1017.93
2019-05-01T02:49:03.587Z,1017.93
2019-05-01T02:49:33.672Z,1017.92
2019-05-01T02:50:03.595Z,1017.92
2019-05-01T02:50:33.655Z,1017.90
2019-05-01T02:51:33.645Z,1017.92
2019-05-01T02:52:03.590Z,1017.90
2019-05-01T02:52:33.662Z,1017.93
2019-05-01T02:53:03.589Z,1017.89
2019-05-01T02:54:03.587Z,1017.93
2019-05-01T02:54:33.686Z,1017.92
2019-05-01T02:55:03.599Z,1017.91
2019-05-01T02:55:33.649Z,1017.94
2019-05-01T02:56:36.104Z,1017.90
2019-05-01T02:57:03.585Z,1017.93
2019-05-01T02:57:33.650Z,1017.91
2019-05-01T02:58:03.587Z,1017.92
2019-05-01T02:59:03.591Z,1017.94
2019-05-01T02:59:33.678Z,1017.91
2019-05-01T03:00:03.587Z,1017.90
2019-05-01T03:00:33.641Z,1017.88
2019-05-01T03:01:46.824Z,1017.89
2019-05-01T03:02:03.600Z,1017.86
2019-05-01T03:02:33.647Z,1017.87
2019-05-01T03:03:03.610Z,1017.86
2019-05-01T03:04:03.594Z,1017.89
2019-05-01T03:04:33.654Z,1017.85
2019-05-01T03:05:03.629Z,1017.88
2019-05-01T03:05:33.647Z,1017.87
2019-05-01T03:06:33.650Z,1017.87
2019-05-01T03:07:06.121Z,1017.87
2019-05-01T03:07:33.652Z,1017.86
2019-05-01T03:08:03.605Z,1017.85
2019-05-01T03:09:03.592Z,1017.87
2019-05-01T03:09:33.671Z,1017.87
2019-05-01T03:10:03.633Z,1017.86
2019-05-01T03:10:33.649Z,1017.85
2019-05-01T03:11:33.652Z,1017.84
2019-05-01T03:12:03.597Z,1017.85
2019-05-01T03:12:33.778Z,1017.82
2019-05-01T03:13:03.620Z,1017.82
2019-05-01T03:14:03.586Z,1017.82
2019-05-01T03:14:33.645Z,1017.83
2019-05-01T03:15:03.591Z,1017.83
2019-05-01T03:15:33.697Z,1017.87
2019-05-01T03:16:33.656Z,1017.83
2019-05-01T03:17:03.613Z,1017.87
2019-05-01T03:17:36.131Z,1017.87
2019-05-01T03:18:03.593Z,1017.85
2019-05-01T03:19:03.606Z,1017.87
2019-05-01T03:19:33.646Z,1017.88
2019-05-01T03:20:03.591Z,1017.86
2019-05-01T03:20:33.653Z,1017.88
2019-05-01T03:21:33.674Z,1017.86
2019-05-01T03:22:03.599Z,1017.84
2019-05-01T03:22:33.647Z,1017.83
2019-05-01T03:23:03.607Z,1017.83
2019-05-01T03:24:03.593Z,1017.80
2019-05-01T03:24:33.677Z,1017.80
2019-05-01T03:25:03.600Z,1017.79
2019-05-01T03:25:33.703Z,1017.79
2019-05-01T03:26:33.650Z,1017.78
2019-05-01T03:27:03.598Z,1017.80
2019-05-01T03:27:33.655Z,1017.79
2019-05-01T03:28:06.112Z,1017.80
2019-05-01T03:29:03.596Z,1017.79
2019-05-01T03:29:33.667Z,1017.80
2019-05-01T03:30:03.609Z,1017.79
2019-05-01T03:30:33.655Z,1017.77
2019-05-01T03:31:33.666Z,1017.77
2019-05-01T03:32:18.947Z,1017.79
2019-05-01T03:32:33.655Z,1017.80
2019-05-01T03:33:03.625Z,1017.76
2019-05-01T03:34:03.603Z,1017.78
2019-05-01T03:34:33.665Z,1017.80
2019-05-01T03:35:03.770Z,1017.75
2019-05-01T03:35:33.650Z,1017.76
2019-05-01T03:36:33.682Z,1017.76
2019-05-01T03:37:03.608Z,1017.74
2019-05-01T03:37:33.667Z,1017.76
2019-05-01T03:38:03.617Z,1017.76
2019-05-01T03:38:36.120Z,1017.78
2019-05-01T03:39:33.657Z,1017.75
2019-05-01T03:40:03.590Z,1017.75
2019-05-01T03:40:33.667Z,1017.80
2019-05-01T03:41:33.660Z,1017.78
2019-05-01T03:42:03.593Z,1017.76
2019-05-01T03:42:33.923Z,1017.76
2019-05-01T03:43:03.588Z,1017.77
2019-05-01T03:44:03.592Z,1017.77
2019-05-01T03:44:33.656Z,1017.75
2019-05-01T03:45:03.594Z,1017.79
2019-05-01T03:45:35.659Z,1017.79
2019-05-01T03:46:33.668Z,1017.79
2019-05-01T03:47:03.603Z,1017.78
2019-05-01T03:47:33.665Z,1017.80
2019-05-01T03:48:03.625Z,1017.79
2019-05-01T03:49:06.117Z,1017.78
2019-05-01T03:49:33.667Z,1017.80
2019-05-01T03:50:03.607Z,1017.78
2019-05-01T03:50:33.661Z,1017.79
2019-05-01T03:51:33.667Z,1017.77
2019-05-01T03:52:03.607Z,1017.76
2019-05-01T03:52:33.670Z,1017.72
2019-05-01T03:53:03.599Z,1017.73
2019-05-01T03:54:03.596Z,1017.72
2019-05-01T03:54:33.662Z,1017.70
2019-05-01T03:55:03.607Z,1017.72
2019-05-01T03:55:33.658Z,1017.70
2019-05-01T03:56:33.689Z,1017.73
2019-05-01T03:57:03.598Z,1017.72
2019-05-01T03:57:33.676Z,1017.69
2019-05-01T03:58:03.598Z,1017.69
2019-05-01T03:59:03.600Z,1017.70
2019-05-01T03:59:36.119Z,1017.67
2019-05-01T04:00:03.602Z,1017.67
2019-05-01T04:00:33.668Z,1017.68
2019-05-01T04:01:33.668Z,1017.67
2019-05-01T04:02:03.600Z,1017.69
2019-05-01T04:02:35.679Z,1017.70
2019-05-01T04:03:03.604Z,1017.68
2019-05-01T04:03:33.665Z,1017.72
2019-05-01T04:04:33.665Z,1017.69
2019-05-01T04:05:03.618Z,1017.69
2019-05-01T04:05:33.655Z,1017.68
2019-05-01T04:06:03.636Z,1017.68
2019-05-01T04:07:03.617Z,1017.68
2019-05-01T04:07:36.713Z,1017.66
2019-05-01T04:08:03.603Z,1017.66
2019-05-01T04:08:33.661Z,1017.65
2019-05-01T04:09:33.668Z,1017.65
2019-05-01T04:10:06.464Z,1017.66
2019-05-01T04:10:33.667Z,1017.64
2019-05-01T04:11:03.598Z,1017.68
2019-05-01T04:12:03.622Z,1017.64
2019-05-01T04:12:33.660Z,1017.65
2019-05-01T04:13:03.611Z,1017.66
2019-05-01T04:13:33.659Z,1017.64
2019-05-01T04:14:33.658Z,1017.64
2019-05-01T04:15:03.601Z,1017.62
2019-05-01T04:15:33.665Z,1017.62
2019-05-01T04:16:03.607Z,1017.61
2019-05-01T04:17:03.605Z,1017.61
2019-05-01T04:17:34.803Z,1017.60
2019-05-01T04:18:03.617Z,1017.60
2019-05-01T04:18:33.674Z,1017.60
2019-05-01T04:19:33.668Z,1017.57
2019-05-01T04:20:03.611Z,1017.58
2019-05-01T04:20:36.108Z,1017.58
2019-05-01T04:21:03.621Z,1017.61
2019-05-01T04:22:03.608Z,1017.61
2019-05-01T04:22:33.668Z,1017.60
2019-05-01T04:23:03.619Z,1017.63
2019-05-01T04:23:33.676Z,1017.64
2019-05-01T04:24:33.671Z,1017.63
2019-05-01T04:25:03.614Z,1017.64
2019-05-01T04:25:33.673Z,1017.66
2019-05-01T04:26:03.610Z,1017.62
2019-05-01T04:27:03.599Z,1017.64
2019-05-01T04:27:33.692Z,1017.65
2019-05-01T04:28:03.608Z,1017.66
2019-05-01T04:28:33.689Z,1017.64
2019-05-01T04:29:33.681Z,1017.70
2019-05-01T04:30:03.603Z,1017.68
2019-05-01T04:30:33.666Z,1017.68
2019-05-01T04:31:07.287Z,1017.69
2019-05-01T04:32:03.602Z,1017.72
2019-05-01T04:32:51.514Z,1017.73
2019-05-01T04:33:03.605Z,1017.73
2019-05-01T04:33:33.723Z,1017.72
2019-05-01T04:34:03.617Z,1017.71
2019-05-01T04:35:03.612Z,1017.72
2019-05-01T04:35:33.675Z,1017.73
2019-05-01T04:36:03.610Z,1017.73
2019-05-01T04:36:33.672Z,1017.72
2019-05-01T04:37:33.683Z,1017.75
2019-05-01T04:38:03.605Z,1017.77
2019-05-01T04:38:33.792Z,1017.77
2019-05-01T04:39:03.607Z,1017.77
2019-05-01T04:40:03.611Z,1017.78
2019-05-01T04:40:33.678Z,1017.77
2019-05-01T04:41:03.608Z,1017.82
2019-05-01T04:41:36.141Z,1017.81
2019-05-01T04:42:33.672Z,1017.79
2019-05-01T04:43:03.600Z,1017.80
2019-05-01T04:43:33.674Z,1017.81
2019-05-01T04:44:03.605Z,1017.82
2019-05-01T04:45:03.611Z,1017.82
2019-05-01T04:45:33.682Z,1017.81
2019-05-01T04:46:03.610Z,1017.82
2019-05-01T04:46:33.673Z,1017.83
2019-05-01T04:47:33.668Z,1017.83
2019-05-01T04:48:03.666Z,1017.86
2019-05-01T04:48:33.664Z,1017.86
2019-05-01T04:49:03.611Z,1017.87
2019-05-01T04:50:03.621Z,1017.88
2019-05-01T04:50:33.672Z,1017.88
2019-05-01T04:51:03.650Z,1017.88
2019-05-01T04:51:33.666Z,1017.89
2019-05-01T04:52:06.223Z,1017.89
2019-05-01T04:53:03.613Z,1017.91
2019-05-01T04:53:33.680Z,1017.90
2019-05-01T04:54:03.616Z,1017.90
2019-05-01T04:55:03.617Z,1017.90
2019-05-01T04:55:33.679Z,1017.90
2019-05-01T04:56:03.619Z,1017.92
2019-05-01T04:56:33.680Z,1017.93
2019-05-01T04:57:33.672Z,1017.95
2019-05-01T04:58:03.610Z,1017.97
2019-05-01T04:58:33.666Z,1017.95
2019-05-01T04:59:03.604Z,1017.96
2019-05-01T05:00:03.630Z,1017.99
2019-05-01T05:00:33.670Z,1017.98
2019-05-01T05:01:03.610Z,1017.98
2019-05-01T05:01:33.672Z,1017.97
2019-05-01T05:02:36.396Z,1017.99
2019-05-01T05:03:06.635Z,1017.99
2019-05-01T05:03:33.712Z,1018.01
2019-05-01T05:04:03.616Z,1018.03
2019-05-01T05:05:03.612Z,1017.99
2019-05-01T05:05:33.688Z,1018.02
2019-05-01T05:06:03.615Z,1018.04
2019-05-01T05:06:33.679Z,1018.03
2019-05-01T05:07:33.674Z,1018.03
2019-05-01T05:08:03.620Z,1018.06
2019-05-01T05:08:33.674Z,1018.06
2019-05-01T05:09:03.614Z,1018.06
2019-05-01T05:09:33.677Z,1018.06
2019-05-01T05:10:33.676Z,1018.05
2019-05-01T05:11:03.619Z,1018.05
2019-05-01T05:11:33.674Z,1018.04
2019-05-01T05:12:03.615Z,1018.04
2019-05-01T05:13:06.119Z,1018.02
2019-05-01T05:13:33.675Z,1018.04
2019-05-01T05:14:03.608Z,1018.03
2019-05-01T05:14:33.679Z,1018.02
2019-05-01T05:15:33.668Z,1018.05
2019-05-01T05:16:03.739Z,1018.08
2019-05-01T05:16:33.684Z,1018.09
2019-05-01T05:17:03.621Z,1018.09
2019-05-01T05:18:03.617Z,1018.11
2019-05-01T05:18:33.680Z,1018.08
2019-05-01T05:19:03.655Z,1018.11
2019-05-01T05:19:33.678Z,1018.10
2019-05-01T05:20:33.681Z,1018.11
2019-05-01T05:21:03.634Z,1018.10
2019-05-01T05:21:33.686Z,1018.10
2019-05-01T05:22:03.618Z,1018.10
2019-05-01T05:23:03.620Z,1018.09
2019-05-01T05:23:36.151Z,1018.10
2019-05-01T05:24:03.618Z,1018.08
2019-05-01T05:24:33.671Z,1018.14
2019-05-01T05:25:33.678Z,1018.13
2019-05-01T05:26:03.619Z,1018.13
2019-05-01T05:26:33.687Z,1018.14
2019-05-01T05:27:03.616Z,1018.16
2019-05-01T05:28:03.622Z,1018.19
2019-05-01T05:28:33.685Z,1018.18
2019-05-01T05:29:03.619Z,1018.18
2019-05-01T05:29:33.672Z,1018.19
2019-05-01T05:30:33.686Z,1018.20
2019-05-01T05:31:03.617Z,1018.21
2019-05-01T05:31:33.678Z,1018.22
2019-05-01T05:32:03.616Z,1018.20
2019-05-01T05:33:03.624Z,1018.20
2019-05-01T05:33:33.682Z,1018.20
2019-05-01T05:34:06.117Z,1018.19
2019-05-01T05:34:33.708Z,1018.22
2019-05-01T05:35:03.626Z,1018.22
2019-05-01T05:35:33.687Z,1018.21
2019-05-01T05:36:03.622Z,1018.20
2019-05-01T05:36:33.690Z,1018.22
2019-05-01T05:37:03.631Z,1018.20
2019-05-01T05:37:33.678Z,1018.25
2019-05-01T05:38:33.686Z,1018.22
2019-05-01T05:39:03.616Z,1018.23
2019-05-01T05:39:33.673Z,1018.23
2019-05-01T05:40:03.615Z,1018.21
2019-05-01T05:41:03.637Z,1018.18
2019-05-01T05:41:33.684Z,1018.20
2019-05-01T05:42:03.618Z,1018.22
2019-05-01T05:42:33.695Z,1018.19
2019-05-01T05:43:33.685Z,1018.19
2019-05-01T05:44:03.622Z,1018.15
2019-05-01T05:44:36.129Z,1018.16
2019-05-01T05:45:03.623Z,1018.15
2019-05-01T05:46:03.618Z,1018.14
2019-05-01T05:46:33.681Z,1018.15
2019-05-01T05:47:03.638Z,1018.18
2019-05-01T05:47:33.695Z,1018.15
2019-05-01T05:48:33.684Z,1018.18
2019-05-01T05:49:03.638Z,1018.18
2019-05-01T05:49:33.682Z,1018.20
2019-05-01T05:50:03.664Z,1018.18
2019-05-01T05:51:03.675Z,1018.22
2019-05-01T05:51:33.708Z,1018.23
2019-05-01T05:52:03.640Z,1018.23
2019-05-01T05:52:33.683Z,1018.23
2019-05-01T05:53:03.622Z,1018.23
2019-05-01T05:54:03.621Z,1018.22
2019-05-01T05:54:33.692Z,1018.24
2019-05-01T05:55:06.134Z,1018.24
2019-05-01T05:55:33.682Z,1018.23
2019-05-01T05:56:33.686Z,1018.22
2019-05-01T05:57:03.629Z,1018.23
2019-05-01T05:57:33.686Z,1018.22
2019-05-01T05:58:03.630Z,1018.23
2019-05-01T05:59:03.636Z,1018.22
2019-05-01T05:59:33.683Z,1018.21
2019-05-01T06:00:03.624Z,1018.26
2019-05-01T06:00:33.683Z,1018.23
2019-05-01T06:01:33.692Z,1018.25
2019-05-01T06:02:03.621Z,1018.27
2019-05-01T06:02:33.686Z,1018.22
2019-05-01T06:03:03.642Z,1018.22
2019-05-01T06:04:03.624Z,1018.22
2019-05-01T06:04:33.678Z,1018.20
2019-05-01T06:05:03.759Z,1018.24
2019-05-01T06:05:36.200Z,1018.25
2019-05-01T06:06:03.624Z,1018.23
2019-05-01T06:07:03.635Z,1018.22
2019-05-01T06:07:33.693Z,1018.27
2019-05-01T06:08:03.638Z,1018.23
2019-05-01T06:08:33.682Z,1018.26
2019-05-01T06:09:33.707Z,1018.27
2019-05-01T06:10:03.633Z,1018.25
2019-05-01T06:10:33.688Z,1018.24
2019-05-01T06:11:03.636Z,1018.25
2019-05-01T06:12:08.902Z,1018.24
2019-05-01T06:12:33.695Z,1018.21
2019-05-01T06:13:03.631Z,1018.20
2019-05-01T06:13:33.690Z,1018.22
2019-05-01T06:14:33.735Z,1018.20
2019-05-01T06:15:08.647Z,1018.19
2019-05-01T06:15:40.999Z,1018.21
2019-05-01T06:16:06.311Z,1018.21
2019-05-01T06:17:03.623Z,1018.21
2019-05-01T06:17:33.679Z,1018.21
2019-05-01T06:18:06.638Z,1018.24
2019-05-01T06:18:39.263Z,1018.25
2019-05-01T06:19:33.703Z,1018.24
2019-05-01T06:20:03.632Z,1018.25
2019-05-01T06:20:33.751Z,1018.28
2019-05-01T06:21:05.641Z,1018.29
2019-05-01T06:21:36.701Z,1018.26
2019-05-01T06:22:33.689Z,1018.27
2019-05-01T06:23:03.634Z,1018.28
2019-05-01T06:23:35.699Z,1018.26
2019-05-01T06:24:08.659Z,1018.25
2019-05-01T06:24:40.417Z,1018.28
2019-05-01T06:25:33.692Z,1018.25
2019-05-01T06:26:04.773Z,1018.26
2019-05-01T06:26:40.478Z,1018.22
2019-05-01T06:27:33.684Z,1018.26
2019-05-01T06:28:03.633Z,1018.25
2019-05-01T06:28:33.690Z,1018.28
2019-05-01T06:29:03.631Z,1018.26
2019-05-01T06:29:37.285Z,1018.27
2019-05-01T06:30:10.882Z,1018.27
2019-05-01T06:31:03.631Z,1018.29
2019-05-01T06:31:33.691Z,1018.26
2019-05-01T06:32:35.711Z,1018.26
2019-05-01T06:33:09.310Z,1018.26
2019-05-01T06:33:44.187Z,1018.26
2019-05-01T06:34:03.635Z,1018.27
2019-05-01T06:35:05.641Z,1018.26
2019-05-01T06:35:39.411Z,1018.31
2019-05-01T06:36:03.638Z,1018.28
2019-05-01T06:36:33.689Z,1018.31
2019-05-01T06:37:06.575Z,1018.31
2019-05-01T06:38:03.652Z,1018.30
2019-05-01T06:38:37.782Z,1018.32
2019-05-01T06:39:11.178Z,1018.29
2019-05-01T06:40:03.633Z,1018.29
2019-05-01T06:40:33.695Z,1018.31
2019-05-01T06:41:03.638Z,1018.29
2019-05-01T06:41:42.218Z,1018.31
2019-05-01T06:42:33.697Z,1018.30
2019-05-01T06:43:03.638Z,1018.31
2019-05-01T06:43:33.804Z,1018.30
2019-05-01T06:44:08.649Z,1018.32
2019-05-01T06:44:41.829Z,1018.30
2019-05-01T06:45:33.698Z,1018.30
2019-05-01T06:46:03.640Z,1018.29
2019-05-01T06:46:36.708Z,1018.31
2019-05-01T06:47:05.791Z,1018.33
2019-05-01T06:47:42.989Z,1018.30
2019-05-01T06:48:37.445Z,1018.34
2019-05-01T06:49:05.267Z,1018.35
2019-05-01T06:49:33.695Z,1018.33
2019-05-01T06:50:07.482Z,1018.37
2019-05-01T06:50:36.941Z,1018.36
2019-05-01T06:51:33.811Z,1018.38
2019-05-01T06:52:03.638Z,1018.34
2019-05-01T06:53:06.745Z,1018.36
2019-05-01T06:53:39.783Z,1018.40
2019-05-01T06:54:03.634Z,1018.41
2019-05-01T06:54:33.703Z,1018.39
2019-05-01T06:55:33.691Z,1018.37
2019-05-01T06:56:03.655Z,1018.40
2019-05-01T06:56:33.697Z,1018.41
2019-05-01T06:57:03.637Z,1018.41
2019-05-01T06:58:06.202Z,1018.42
2019-05-01T06:58:34.703Z,1018.41
2019-05-01T06:59:03.646Z,1018.42
2019-05-01T06:59:34.701Z,1018.42
2019-05-01T07:00:10.286Z,1018.41
2019-05-01T07:01:03.637Z,1018.44
2019-05-01T07:01:33.699Z,1018.44
2019-05-01T07:02:03.704Z,1018.41
2019-05-01T07:03:10.376Z,1018.43
2019-05-01T07:03:33.698Z,1018.44
2019-05-01T07:04:05.654Z,1018.45
2019-05-01T07:04:39.667Z,1018.42
2019-05-01T07:05:33.707Z,1018.44
2019-05-01T07:06:14.204Z,1018.43
2019-05-01T07:06:34.699Z,1018.43
2019-05-01T07:07:18.535Z,1018.43
2019-05-01T07:08:03.637Z,1018.44
2019-05-01T07:08:40.710Z,1018.41
2019-05-01T07:09:06.889Z,1018.41
2019-05-01T07:09:33.699Z,1018.43
2019-05-01T07:10:43.878Z,1018.42
2019-05-01T07:11:03.641Z,1018.42
2019-05-01T07:11:33.777Z,1018.40
2019-05-01T07:12:03.644Z,1018.40
2019-05-01T07:13:08.671Z,1018.42
2019-05-01T07:13:39.928Z,1018.41
2019-05-01T07:14:03.651Z,1018.42
2019-05-01T07:14:33.726Z,1018.41
2019-05-01T07:15:33.707Z,1018.40
2019-05-01T07:16:04.652Z,1018.39
2019-05-01T07:16:39.065Z,1018.41
2019-05-01T07:17:03.642Z,1018.40
2019-05-01T07:18:03.639Z,1018.43
2019-05-01T07:18:33.697Z,1018.42
2019-05-01T07:19:07.202Z,1018.41
2019-05-01T07:19:40.245Z,1018.42
2019-05-01T07:20:33.719Z,1018.38
2019-05-01T07:21:03.638Z,1018.40
2019-05-01T07:21:34.703Z,1018.40
2019-05-01T07:22:07.442Z,1018.40